Axtel, Kentucky
Current Conditions -  °F | °C
As of 4:58 AM on Saturday 25 Oct 2014 (Local Time) from KFTK Reporting Station
Clear Clear  
Wind Chill: 43°   Ceiling: Unl
Heat Index: 46°   Visibility: 8mi
Dew Point: 45°   Wind: 6mph
Humidity: 95%   Direction: 200°SSW
Pressure: 30.02"   Gusts: NA
Location:  37.7834°N, 86.4612°W
Report Text: KFTK 250958Z AUTO 20005KT 8SM R18/5500FT CLR 08/07 A3002 RMK AO2 SLP168 T00780070
Loading
Personal Weather Stations






























Interactive Weather Map New forecast layout! Learn more

10-Day Weather Forecast

Advertisements
Track Severe Weather on mobile